PWSweather.com
Personal Weather Stations
Station Observations
MODAVIPC
SerramonacescaIT 65025

SerramonacescaIT 65025

Lat: 42.144601, Lon: 14.052911

Elevation: 1003.94

Station Type: WS1080

Latest ConditionsUpdated 2:42:17 AM GMT+01:01 Monday, May 20, 2019
Currently Today's Max Today's Min Today's Average
Temperature 57.9°F14.4°C 59.5°F15.3°C 55.9°F13.3°C 57.9°F14.4°C
Dew Point 36.7°F2.6°C 38.2°F3.4°C 34.5°F1.4°C 36.6°F2.6°C
Winds 4.6 mph W7.4 kmh W 10.5 mph -16.9 kmh - - 4.1 mph 6.6 kmh
Wind Gusts 5.5 mph8.9 kmh 12.8 mph20.6 kmh - -
Humidity 45% 51% 41% 45%
Pressure 29.71 in1006.1 mb 29.72 in1006.4 mb 29.70 in1005.8 mb -
Hour Temp Dew Point Humidity Winds Wind Gusts Pressure Precip Precip Rate Daily Precip Total
02:42 AM 57.9°F14.4°C 36.7°F2.6°C 45% 4.6 mph W7.4 kmh W 5.5 mph8.9 kmh 29.71 in1006.1 mb 0.00 in0.0 mm 0.00 in0.0 mm 0.00 in0.0 mm
02:41 AM 58.3°F14.6°C 35.9°F2.2°C 43% 2.3 mph NW3.7 kmh NW 3.2 mph5.1 kmh 29.71 in1006.1 mb 0.00 in0.0 mm 0.00 in0.0 mm 0.00 in0.0 mm
02:40 AM 58.5°F14.7°C 35.5°F1.9°C 42% 2.7 mph WNW4.3 kmh WNW 3.6 mph5.8 kmh 29.71 in1006.1 mb 0.00 in0.0 mm 0.00 in0.0 mm 0.00 in0.0 mm
02:39 AM 58.5°F14.7°C 35.5°F1.9°C 42% 2.7 mph WNW4.3 kmh WNW 3.6 mph5.8 kmh 29.71 in1006.1 mb 0.00 in0.0 mm 0.00 in0.0 mm 0.00 in0.0 mm
02:38 AM 58.6°F14.8°C 35.6°F2.0°C 42% 2.3 mph SW3.7 kmh SW 3.6 mph5.8 kmh 29.71 in1006.1 mb 0.00 in0.0 mm 0.00 in0.0 mm 0.00 in0.0 mm
02:37 AM 58.6°F14.8°C 35.0°F1.7°C 41% 4.2 mph SSW6.8 kmh SSW 5.5 mph8.9 kmh 29.71 in1006.1 mb 0.00 in0.0 mm 0.00 in0.0 mm 0.00 in0.0 mm
02:36 AM 58.5°F14.7°C 35.5°F1.9°C 42% 6.4 mph S10.3 kmh S 8.7 mph14.0 kmh 29.71 in1006.1 mb 0.00 in0.0 mm 0.00 in0.0 mm 0.00 in0.0 mm
02:35 AM 58.5°F14.7°C 35.5°F1.9°C 42% 6.4 mph S10.3 kmh S 8.7 mph14.0 kmh 29.70 in1005.8 mb 0.00 in0.0 mm 0.00 in0.0 mm 0.00 in0.0 mm
02:34 AM 58.5°F14.7°C 35.5°F1.9°C 42% 5.0 mph SW8.0 kmh SW 6.4 mph10.3 kmh 29.70 in1005.8 mb 0.00 in0.0 mm 0.00 in0.0 mm 0.00 in0.0 mm
02:33 AM 58.3°F14.6°C 35.3°F1.8°C 42% 6.9 mph SW11.1 kmh SW 9.1 mph14.6 kmh 29.70 in1005.8 mb 0.00 in0.0 mm 0.00 in0.0 mm 0.00 in0.0 mm
02:32 AM 58.3°F14.6°C 35.3°F1.8°C 42% 5.0 mph SW8.0 kmh SW 5.9 mph9.5 kmh 29.70 in1005.8 mb 0.00 in0.0 mm 0.00 in0.0 mm 0.00 in0.0 mm
02:31 AM 58.3°F14.6°C 35.3°F1.8°C 42% 5.0 mph SW8.0 kmh SW 5.9 mph9.5 kmh 29.70 in1005.8 mb 0.00 in0.0 mm 0.00 in0.0 mm 0.00 in0.0 mm
02:30 AM 58.3°F14.6°C 35.3°F1.8°C 42% 4.2 mph SSW6.8 kmh SSW 5.9 mph9.5 kmh 29.71 in1006.1 mb 0.00 in0.0 mm 0.00 in0.0 mm 0.00 in0.0 mm
02:29 AM 58.3°F14.6°C 35.3°F1.8°C 42% 5.9 mph SW9.5 kmh SW 6.9 mph11.1 kmh 29.71 in1006.1 mb 0.00 in0.0 mm 0.00 in0.0 mm 0.00 in0.0 mm
02:28 AM 58.1°F14.5°C 35.1°F1.7°C 42% 5.0 mph S8.0 kmh S 5.9 mph9.5 kmh 29.71 in1006.1 mb 0.00 in0.0 mm 0.00 in0.0 mm 0.00 in0.0 mm
02:27 AM 58.1°F14.5°C 35.1°F1.7°C 42% 5.0 mph S8.0 kmh S 5.9 mph9.5 kmh 29.70 in1005.8 mb 0.00 in0.0 mm 0.00 in0.0 mm 0.00 in0.0 mm
02:26 AM 58.1°F14.5°C 35.1°F1.7°C 42% 4.6 mph W7.4 kmh W 5.5 mph8.9 kmh 29.70 in1005.8 mb 0.00 in0.0 mm 0.00 in0.0 mm 0.00 in0.0 mm
02:25 AM 58.1°F14.5°C 35.7°F2.1°C 43% 6.4 mph S10.3 kmh S 7.3 mph11.7 kmh 29.71 in1006.1 mb 0.00 in0.0 mm 0.00 in0.0 mm 0.00 in0.0 mm
02:24 AM 58.1°F14.5°C 35.7°F2.1°C 43% 3.2 mph W5.1 kmh W 4.2 mph6.8 kmh 29.71 in1006.1 mb 0.00 in0.0 mm 0.00 in0.0 mm 0.00 in0.0 mm
02:23 AM 58.1°F14.5°C 35.7°F2.1°C 43% 3.2 mph W5.1 kmh W 4.2 mph6.8 kmh 29.70 in1005.8 mb 0.00 in0.0 mm 0.00 in0.0 mm 0.00 in0.0 mm
02:22 AM 57.9°F14.4°C 35.0°F1.7°C 42% 4.6 mph SW7.4 kmh SW 5.9 mph9.5 kmh 29.70 in1005.8 mb 0.00 in0.0 mm 0.00 in0.0 mm 0.00 in0.0 mm
02:21 AM 57.7°F14.3°C 35.4°F1.9°C 43% 5.9 mph S9.5 kmh S 6.9 mph11.1 kmh 29.71 in1006.1 mb 0.00 in0.0 mm 0.00 in0.0 mm 0.00 in0.0 mm
02:20 AM 57.6°F14.2°C 35.2°F1.8°C 43% 7.8 mph S12.6 kmh S 10.5 mph16.9 kmh 29.71 in1006.1 mb 0.00 in0.0 mm 0.00 in0.0 mm 0.00 in0.0 mm
02:19 AM 57.6°F14.2°C 35.2°F1.8°C 43% 7.8 mph S12.6 kmh S 10.5 mph16.9 kmh 29.70 in1005.8 mb 0.00 in0.0 mm 0.00 in0.0 mm 0.00 in0.0 mm
02:18 AM 57.4°F14.1°C 35.7°F2.1°C 44% 5.9 mph SSW9.5 kmh SSW 7.3 mph11.7 kmh 29.71 in1006.1 mb 0.00 in0.0 mm 0.00 in0.0 mm 0.00 in0.0 mm
02:17 AM 57.2°F14.0°C 36.1°F2.3°C 45% 2.3 mph SW3.7 kmh SW 2.7 mph4.3 kmh 29.71 in1006.1 mb 0.00 in0.0 mm 0.00 in0.0 mm 0.00 in0.0 mm
02:16 AM 57.0°F13.9°C 36.5°F2.5°C 46% 2.3 mph SE3.7 kmh SE 3.2 mph5.1 kmh 29.70 in1005.8 mb 0.00 in0.0 mm 0.00 in0.0 mm 0.00 in0.0 mm
02:15 AM 57.0°F13.9°C 36.5°F2.5°C 46% 2.3 mph SE3.7 kmh SE 3.2 mph5.1 kmh 29.70 in1005.8 mb 0.00 in0.0 mm 0.00 in0.0 mm 0.00 in0.0 mm
02:14 AM 57.0°F13.9°C 36.5°F2.5°C 46% 3.6 mph S5.8 kmh S 4.2 mph6.8 kmh 29.71 in1006.1 mb 0.00 in0.0 mm 0.00 in0.0 mm 0.00 in0.0 mm
02:13 AM 56.7°F13.7°C 36.7°F2.6°C 47% 4.6 mph S7.4 kmh S 5.5 mph8.9 kmh 29.71 in1006.1 mb 0.00 in0.0 mm 0.00 in0.0 mm 0.00 in0.0 mm
02:12 AM 56.3°F13.5°C 37.4°F3.0°C 49% 4.6 mph SW7.4 kmh SW 5.5 mph8.9 kmh 29.71 in1006.1 mb 0.00 in0.0 mm 0.00 in0.0 mm 0.00 in0.0 mm
02:11 AM 56.3°F13.5°C 37.4°F3.0°C 49% 4.6 mph SW7.4 kmh SW 5.5 mph8.9 kmh 29.71 in1006.1 mb 0.00 in0.0 mm 0.00 in0.0 mm 0.00 in0.0 mm
02:10 AM 56.1°F13.4°C 37.7°F3.2°C 50% 2.7 mph S4.3 kmh S 3.2 mph5.1 kmh 29.71 in1006.1 mb 0.00 in0.0 mm 0.00 in0.0 mm 0.00 in0.0 mm
02:09 AM 55.9°F13.3°C 38.1°F3.4°C 51% 2.3 mph E3.7 kmh E 3.2 mph5.1 kmh 29.71 in1006.1 mb 0.00 in0.0 mm 0.00 in0.0 mm 0.00 in0.0 mm
02:08 AM 56.1°F13.4°C 38.2°F3.4°C 51% 2.3 mph S3.7 kmh S 2.7 mph4.3 kmh 29.71 in1006.1 mb 0.00 in0.0 mm 0.00 in0.0 mm 0.00 in0.0 mm
02:07 AM 56.1°F13.4°C 38.2°F3.4°C 51% 2.3 mph S3.7 kmh S 2.7 mph4.3 kmh 29.71 in1006.1 mb 0.00 in0.0 mm 0.00 in0.0 mm 0.00 in0.0 mm
02:06 AM 56.1°F13.4°C 37.7°F3.2°C 50% 2.3 mph S3.7 kmh S 2.7 mph4.3 kmh 29.71 in1006.1 mb 0.00 in0.0 mm 0.00 in0.0 mm 0.00 in0.0 mm
02:05 AM 56.3°F13.5°C 37.9°F3.3°C 50% 3.2 mph SW5.1 kmh SW 4.2 mph6.8 kmh 29.71 in1006.1 mb 0.00 in0.0 mm 0.00 in0.0 mm 0.00 in0.0 mm
02:04 AM 56.5°F13.6°C 38.1°F3.4°C 50% 4.6 mph S7.4 kmh S 5.5 mph8.9 kmh 29.71 in1006.1 mb 0.00 in0.0 mm 0.00 in0.0 mm 0.00 in0.0 mm
02:03 AM 56.5°F13.6°C 38.1°F3.4°C 50% 4.6 mph S7.4 kmh S 5.5 mph8.9 kmh 29.71 in1006.1 mb 0.00 in0.0 mm 0.00 in0.0 mm 0.00 in0.0 mm
02:02 AM 56.5°F13.6°C 38.1°F3.4°C 50% 4.6 mph SSW7.4 kmh SSW 5.5 mph8.9 kmh 29.71 in1006.1 mb 0.00 in0.0 mm 0.00 in0.0 mm 0.00 in0.0 mm
02:01 AM 57.0°F13.9°C 38.1°F3.4°C 49% 4.6 mph SW7.4 kmh SW 5.0 mph8.0 kmh 29.71 in1006.1 mb 0.00 in0.0 mm 0.00 in0.0 mm 0.00 in0.0 mm
02:00 AM 57.4°F14.1°C 37.3°F2.9°C 47% 4.2 mph S6.8 kmh S 5.0 mph8.0 kmh 29.70 in1005.8 mb 0.00 in0.0 mm 0.00 in0.0 mm 0.00 in0.0 mm
01:59 AM 57.4°F14.1°C 37.3°F2.9°C 47% 4.2 mph S6.8 kmh S 5.0 mph8.0 kmh 29.70 in1005.8 mb 0.00 in0.0 mm 0.00 in0.0 mm 0.00 in0.0 mm
01:58 AM 57.6°F14.2°C 36.9°F2.7°C 46% 4.6 mph S7.4 kmh S 5.0 mph8.0 kmh 29.71 in1006.1 mb 0.00 in0.0 mm 0.00 in0.0 mm 0.00 in0.0 mm
01:57 AM 58.1°F14.5°C 35.1°F1.7°C 42% 5.5 mph SW8.9 kmh SW 6.4 mph10.3 kmh 29.71 in1006.1 mb 0.00 in0.0 mm 0.00 in0.0 mm 0.00 in0.0 mm
01:56 AM 58.3°F14.6°C 34.7°F1.5°C 41% 5.5 mph S8.9 kmh S 6.4 mph10.3 kmh 29.71 in1006.1 mb 0.00 in0.0 mm 0.00 in0.0 mm 0.00 in0.0 mm
01:55 AM 58.3°F14.6°C 34.7°F1.5°C 41% 5.5 mph S8.9 kmh S 6.4 mph10.3 kmh 29.71 in1006.1 mb 0.00 in0.0 mm 0.00 in0.0 mm 0.00 in0.0 mm
01:54 AM 58.3°F14.6°C 34.7°F1.5°C 41% 5.5 mph S8.9 kmh S 6.4 mph10.3 kmh 29.71 in1006.1 mb 0.00 in0.0 mm 0.00 in0.0 mm 0.00 in0.0 mm
01:53 AM 58.3°F14.6°C 34.7°F1.5°C 41% 3.6 mph S5.8 kmh S 5.5 mph8.9 kmh 29.71 in1006.1 mb 0.00 in0.0 mm 0.00 in0.0 mm 0.00 in0.0 mm
01:52 AM 58.1°F14.5°C 34.5°F1.4°C 41% 2.7 mph SW4.3 kmh SW 4.2 mph6.8 kmh 29.71 in1006.1 mb 0.00 in0.0 mm 0.00 in0.0 mm 0.00 in0.0 mm
01:51 AM 58.1°F14.5°C 34.5°F1.4°C 41% 2.7 mph SW4.3 kmh SW 4.2 mph6.8 kmh 29.71 in1006.1 mb 0.00 in0.0 mm 0.00 in0.0 mm 0.00 in0.0 mm
01:50 AM 57.9°F14.4°C 35.0°F1.7°C 42% 3.6 mph SE5.8 kmh SE 4.2 mph6.8 kmh 29.71 in1006.1 mb 0.00 in0.0 mm 0.00 in0.0 mm 0.00 in0.0 mm
01:49 AM 57.7°F14.3°C 34.8°F1.6°C 42% 3.6 mph SE5.8 kmh SE 4.6 mph7.4 kmh 29.71 in1006.1 mb 0.00 in0.0 mm 0.00 in0.0 mm 0.00 in0.0 mm
01:48 AM 57.6°F14.2°C 35.2°F1.8°C 43% 4.6 mph SE7.4 kmh SE 5.0 mph8.0 kmh 29.71 in1006.1 mb 0.00 in0.0 mm 0.00 in0.0 mm 0.00 in0.0 mm
01:47 AM 57.6°F14.2°C 35.2°F1.8°C 43% 4.6 mph SE7.4 kmh SE 5.0 mph8.0 kmh 29.71 in1006.1 mb 0.00 in0.0 mm 0.00 in0.0 mm 0.00 in0.0 mm
01:46 AM 57.2°F14.0°C 34.9°F1.6°C 43% 6.9 mph E11.1 kmh E 8.2 mph13.2 kmh 29.71 in1006.1 mb 0.00 in0.0 mm 0.00 in0.0 mm 0.00 in0.0 mm
01:45 AM 56.7°F13.7°C 35.6°F2.0°C 45% 6.9 mph SE11.1 kmh SE 8.7 mph14.0 kmh 29.71 in1006.1 mb 0.00 in0.0 mm 0.00 in0.0 mm 0.00 in0.0 mm
01:44 AM 57.0°F13.9°C 35.9°F2.2°C 45% 3.6 mph SE5.8 kmh SE 4.2 mph6.8 kmh 29.71 in1006.1 mb 0.00 in0.0 mm 0.00 in0.0 mm 0.00 in0.0 mm
01:43 AM 57.0°F13.9°C 35.9°F2.2°C 45% 3.6 mph SE5.8 kmh SE 4.2 mph6.8 kmh 29.71 in1006.1 mb 0.00 in0.0 mm 0.00 in0.0 mm 0.00 in0.0 mm
01:42 AM 57.2°F14.0°C 36.1°F2.3°C 45% 2.3 mph SE3.7 kmh SE 2.7 mph4.3 kmh 29.71 in1006.1 mb 0.00 in0.0 mm 0.00 in0.0 mm 0.00 in0.0 mm
01:41 AM 57.4°F14.1°C 35.7°F2.1°C 44% 1.3 mph SSE2.1 kmh SSE 1.9 mph3.1 kmh 29.71 in1006.1 mb 0.00 in0.0 mm 0.00 in0.0 mm 0.00 in0.0 mm
01:40 AM 57.6°F14.2°C 35.8°F2.1°C 44% 2.3 mph E3.7 kmh E 3.2 mph5.1 kmh 29.71 in1006.1 mb 0.00 in0.0 mm 0.00 in0.0 mm 0.00 in0.0 mm
01:39 AM 57.6°F14.2°C 35.8°F2.1°C 44% 2.3 mph E3.7 kmh E 3.2 mph5.1 kmh 29.71 in1006.1 mb 0.00 in0.0 mm 0.00 in0.0 mm 0.00 in0.0 mm
01:38 AM 57.6°F14.2°C 36.4°F2.4°C 45% 3.2 mph SE5.1 kmh SE 4.2 mph6.8 kmh 29.71 in1006.1 mb 0.00 in0.0 mm 0.00 in0.0 mm 0.00 in0.0 mm
01:37 AM 57.6°F14.2°C 35.8°F2.1°C 44% 2.3 mph S3.7 kmh S 2.7 mph4.3 kmh 29.71 in1006.1 mb 0.00 in0.0 mm 0.00 in0.0 mm 0.00 in0.0 mm
01:36 AM 57.6°F14.2°C 35.8°F2.1°C 44% 2.7 mph SE4.3 kmh SE 3.2 mph5.1 kmh 29.72 in1006.4 mb 0.00 in0.0 mm 0.00 in0.0 mm 0.00 in0.0 mm
01:35 AM 57.6°F14.2°C 35.8°F2.1°C 44% 2.7 mph SE4.3 kmh SE 3.2 mph5.1 kmh 29.72 in1006.4 mb 0.00 in0.0 mm 0.00 in0.0 mm 0.00 in0.0 mm
01:34 AM 57.4°F14.1°C 35.7°F2.1°C 44% 3.6 mph S5.8 kmh S 4.6 mph7.4 kmh 29.71 in1006.1 mb 0.00 in0.0 mm 0.00 in0.0 mm 0.00 in0.0 mm
01:33 AM 57.2°F14.0°C 37.2°F2.9°C 47% 1.3 mph SE2.1 kmh SE 1.9 mph3.1 kmh 29.71 in1006.1 mb 0.00 in0.0 mm 0.00 in0.0 mm 0.00 in0.0 mm
01:32 AM 57.4°F14.1°C 36.8°F2.7°C 46% 1.3 mph E2.1 kmh E 1.9 mph3.1 kmh 29.72 in1006.4 mb 0.00 in0.0 mm 0.00 in0.0 mm 0.00 in0.0 mm
01:31 AM 57.4°F14.1°C 36.8°F2.7°C 46% 1.3 mph E2.1 kmh E 1.9 mph3.1 kmh 29.72 in1006.4 mb 0.00 in0.0 mm 0.00 in0.0 mm 0.00 in0.0 mm
01:30 AM 57.0°F13.9°C 36.5°F2.5°C 46% 6.9 mph SW11.1 kmh SW 7.3 mph11.7 kmh 29.71 in1006.1 mb 0.00 in0.0 mm 0.00 in0.0 mm 0.00 in0.0 mm
01:29 AM 56.7°F13.7°C 37.2°F2.9°C 48% 5.9 mph S9.5 kmh S 7.3 mph11.7 kmh 29.72 in1006.4 mb 0.00 in0.0 mm 0.00 in0.0 mm 0.00 in0.0 mm
01:28 AM 56.7°F13.7°C 37.7°F3.2°C 49% 1.9 mph SW3.1 kmh SW 2.3 mph3.7 kmh 29.71 in1006.1 mb 0.00 in0.0 mm 0.00 in0.0 mm 0.00 in0.0 mm
01:27 AM 56.7°F13.7°C 37.7°F3.2°C 49% 1.9 mph SW3.1 kmh SW 2.3 mph3.7 kmh 29.71 in1006.1 mb 0.00 in0.0 mm 0.00 in0.0 mm 0.00 in0.0 mm
01:26 AM 56.7°F13.7°C 37.7°F3.2°C 49% 1.9 mph S3.1 kmh S 2.3 mph3.7 kmh 29.71 in1006.1 mb 0.00 in0.0 mm 0.00 in0.0 mm 0.00 in0.0 mm
01:25 AM 56.8°F13.8°C 37.9°F3.3°C 49% 1.9 mph S3.1 kmh S 2.3 mph3.7 kmh 29.71 in1006.1 mb 0.00 in0.0 mm 0.00 in0.0 mm 0.00 in0.0 mm
01:24 AM 56.8°F13.8°C 37.4°F3.0°C 48% 2.3 mph E3.7 kmh E 2.7 mph4.3 kmh 29.71 in1006.1 mb 0.00 in0.0 mm 0.00 in0.0 mm 0.00 in0.0 mm
01:23 AM 56.8°F13.8°C 37.4°F3.0°C 48% 2.3 mph E3.7 kmh E 2.7 mph4.3 kmh 29.71 in1006.1 mb 0.00 in0.0 mm 0.00 in0.0 mm 0.00 in0.0 mm
01:22 AM 57.0°F13.9°C 37.5°F3.1°C 48% 2.7 mph ESE4.3 kmh ESE 2.7 mph4.3 kmh 29.71 in1006.1 mb 0.00 in0.0 mm 0.00 in0.0 mm 0.00 in0.0 mm
01:21 AM 57.2°F14.0°C 37.2°F2.9°C 47% 2.7 mph S4.3 kmh S 3.6 mph5.8 kmh 29.71 in1006.1 mb 0.00 in0.0 mm 0.00 in0.0 mm 0.00 in0.0 mm
01:20 AM 57.4°F14.1°C 36.8°F2.7°C 46% 2.7 mph W4.3 kmh W 3.2 mph5.1 kmh 29.71 in1006.1 mb 0.00 in0.0 mm 0.00 in0.0 mm 0.00 in0.0 mm
01:19 AM 57.4°F14.1°C 36.8°F2.7°C 46% 2.7 mph W4.3 kmh W 3.2 mph5.1 kmh 29.71 in1006.1 mb 0.00 in0.0 mm 0.00 in0.0 mm 0.00 in0.0 mm
01:18 AM 57.4°F14.1°C 36.8°F2.7°C 46% 4.2 mph W6.8 kmh W 5.0 mph8.0 kmh 29.71 in1006.1 mb 0.00 in0.0 mm 0.00 in0.0 mm 0.00 in0.0 mm
01:17 AM 57.7°F14.3°C 37.1°F2.8°C 46% 4.6 mph S7.4 kmh S 5.5 mph8.9 kmh 29.71 in1006.1 mb 0.00 in0.0 mm 0.00 in0.0 mm 0.00 in0.0 mm
01:16 AM 57.7°F14.3°C 36.5°F2.5°C 45% 2.7 mph NW4.3 kmh NW 3.2 mph5.1 kmh 29.71 in1006.1 mb 0.00 in0.0 mm 0.00 in0.0 mm 0.00 in0.0 mm
01:15 AM 57.7°F14.3°C 36.5°F2.5°C 45% 2.7 mph NW4.3 kmh NW 3.2 mph5.1 kmh 29.71 in1006.1 mb 0.00 in0.0 mm 0.00 in0.0 mm 0.00 in0.0 mm
01:14 AM 57.7°F14.3°C 37.1°F2.8°C 46% 3.2 mph 5.1 kmh 4.2 mph6.8 kmh 29.71 in1006.1 mb 0.00 in0.0 mm 0.00 in0.0 mm 0.00 in0.0 mm
01:13 AM 57.6°F14.2°C 36.9°F2.7°C 46% 3.6 mph NW5.8 kmh NW 4.6 mph7.4 kmh 29.71 in1006.1 mb 0.00 in0.0 mm 0.00 in0.0 mm 0.00 in0.0 mm
01:12 AM 57.4°F14.1°C 37.3°F2.9°C 47% 3.2 mph NW5.1 kmh NW 3.6 mph5.8 kmh 29.71 in1006.1 mb 0.00 in0.0 mm 0.00 in0.0 mm 0.00 in0.0 mm
01:11 AM 57.4°F14.1°C 37.3°F2.9°C 47% 3.2 mph NW5.1 kmh NW 3.6 mph5.8 kmh 29.71 in1006.1 mb 0.00 in0.0 mm 0.00 in0.0 mm 0.00 in0.0 mm
01:10 AM 57.2°F14.0°C 37.2°F2.9°C 47% 3.2 mph NNW5.1 kmh NNW 4.2 mph6.8 kmh 29.71 in1006.1 mb 0.00 in0.0 mm 0.00 in0.0 mm 0.00 in0.0 mm
01:09 AM 57.0°F13.9°C 37.5°F3.1°C 48% 3.2 mph E5.1 kmh E 3.6 mph5.8 kmh 29.71 in1006.1 mb 0.00 in0.0 mm 0.00 in0.0 mm 0.00 in0.0 mm
01:08 AM 57.0°F13.9°C 37.5°F3.1°C 48% 3.2 mph E5.1 kmh E 3.6 mph5.8 kmh 29.71 in1006.1 mb 0.00 in0.0 mm 0.00 in0.0 mm 0.00 in0.0 mm
01:07 AM 57.0°F13.9°C 37.5°F3.1°C 48% 3.2 mph E5.1 kmh E 3.6 mph5.8 kmh 29.72 in1006.4 mb 0.00 in0.0 mm 0.00 in0.0 mm 0.00 in0.0 mm
01:06 AM 57.0°F13.9°C 37.5°F3.1°C 48% 3.2 mph E5.1 kmh E 3.6 mph5.8 kmh 29.72 in1006.4 mb 0.00 in0.0 mm 0.00 in0.0 mm 0.00 in0.0 mm
01:05 AM 57.0°F13.9°C 37.5°F3.1°C 48% 3.2 mph E5.1 kmh E 3.6 mph5.8 kmh 29.71 in1006.1 mb 0.00 in0.0 mm 0.00 in0.0 mm 0.00 in0.0 mm
01:04 AM 57.0°F13.9°C 37.5°F3.1°C 48% 3.2 mph E5.1 kmh E 3.6 mph5.8 kmh 29.71 in1006.1 mb 0.00 in0.0 mm 0.00 in0.0 mm 0.00 in0.0 mm
01:03 AM 57.0°F13.9°C 37.5°F3.1°C 48% 3.2 mph E5.1 kmh E 3.6 mph5.8 kmh 29.71 in1006.1 mb 0.00 in0.0 mm 0.00 in0.0 mm 0.00 in0.0 mm
01:02 AM 57.0°F13.9°C 37.5°F3.1°C 48% 3.2 mph E5.1 kmh E 3.6 mph5.8 kmh 29.71 in1006.1 mb 0.00 in0.0 mm 0.00 in0.0 mm 0.00 in0.0 mm
01:01 AM 57.0°F13.9°C 37.5°F3.1°C 48% 3.2 mph E5.1 kmh E 3.6 mph5.8 kmh 29.71 in1006.1 mb 0.00 in0.0 mm 0.00 in0.0 mm 0.00 in0.0 mm
01:00 AM 57.0°F13.9°C 37.5°F3.1°C 48% 2.3 mph E3.7 kmh E 2.7 mph4.3 kmh 29.71 in1006.1 mb 0.00 in0.0 mm 0.00 in0.0 mm 0.00 in0.0 mm
12:59 AM 57.2°F14.0°C 37.7°F3.2°C 48% 2.7 mph E4.3 kmh E 3.2 mph5.1 kmh 29.72 in1006.4 mb 0.00 in0.0 mm 0.00 in0.0 mm 0.00 in0.0 mm
12:58 AM 57.4°F14.1°C 37.9°F3.3°C 48% 1.9 mph ENE3.1 kmh ENE 2.7 mph4.3 kmh 29.72 in1006.4 mb 0.00 in0.0 mm 0.00 in0.0 mm 0.00 in0.0 mm
12:57 AM 57.7°F14.3°C 37.7°F3.2°C 47% 2.3 mph ENE3.7 kmh ENE 3.2 mph5.1 kmh 29.71 in1006.1 mb 0.00 in0.0 mm 0.00 in0.0 mm 0.00 in0.0 mm
12:56 AM 58.1°F14.5°C 37.4°F3.0°C 46% 2.7 mph NE4.3 kmh NE 3.6 mph5.8 kmh 29.71 in1006.1 mb 0.00 in0.0 mm 0.00 in0.0 mm 0.00 in0.0 mm
12:55 AM 58.1°F14.5°C 37.4°F3.0°C 46% 2.7 mph NE4.3 kmh NE 3.6 mph5.8 kmh 29.71 in1006.1 mb 0.00 in0.0 mm 0.00 in0.0 mm 0.00 in0.0 mm
12:54 AM 58.1°F14.5°C 37.4°F3.0°C 46% 2.7 mph NE4.3 kmh NE 3.6 mph5.8 kmh 29.71 in1006.1 mb 0.00 in0.0 mm 0.00 in0.0 mm 0.00 in0.0 mm
12:53 AM 57.7°F14.3°C 37.7°F3.2°C 47% 4.6 mph NE7.4 kmh NE 5.9 mph9.5 kmh 29.71 in1006.1 mb 0.00 in0.0 mm 0.00 in0.0 mm 0.00 in0.0 mm
12:52 AM 57.0°F13.9°C 37.5°F3.1°C 48% 5.5 mph SE8.9 kmh SE 7.3 mph11.7 kmh 29.71 in1006.1 mb 0.00 in0.0 mm 0.00 in0.0 mm 0.00 in0.0 mm
12:51 AM 57.0°F13.9°C 37.5°F3.1°C 48% 5.5 mph SE8.9 kmh SE 7.3 mph11.7 kmh 29.71 in1006.1 mb 0.00 in0.0 mm 0.00 in0.0 mm 0.00 in0.0 mm
12:50 AM 56.7°F13.7°C 37.7°F3.2°C 49% 6.9 mph E11.1 kmh E 8.2 mph13.2 kmh 29.72 in1006.4 mb 0.00 in0.0 mm 0.00 in0.0 mm 0.00 in0.0 mm
12:49 AM 57.0°F13.9°C 38.1°F3.4°C 49% 3.6 mph ENE5.8 kmh ENE 4.2 mph6.8 kmh 29.71 in1006.1 mb 0.00 in0.0 mm 0.00 in0.0 mm 0.00 in0.0 mm
12:48 AM 57.7°F14.3°C 37.7°F3.2°C 47% 3.2 mph NE5.1 kmh NE 4.2 mph6.8 kmh 29.71 in1006.1 mb 0.00 in0.0 mm 0.00 in0.0 mm 0.00 in0.0 mm
12:47 AM 57.7°F14.3°C 37.7°F3.2°C 47% 3.2 mph NE5.1 kmh NE 4.2 mph6.8 kmh 29.71 in1006.1 mb 0.00 in0.0 mm 0.00 in0.0 mm 0.00 in0.0 mm
12:46 AM 57.9°F14.4°C 37.3°F2.9°C 46% 2.7 mph NNE4.3 kmh NNE 3.6 mph5.8 kmh 29.71 in1006.1 mb 0.00 in0.0 mm 0.00 in0.0 mm 0.00 in0.0 mm
12:45 AM 58.3°F14.6°C 37.0°F2.8°C 45% 2.7 mph NE4.3 kmh NE 3.6 mph5.8 kmh 29.71 in1006.1 mb 0.00 in0.0 mm 0.00 in0.0 mm 0.00 in0.0 mm
12:44 AM 58.3°F14.6°C 37.0°F2.8°C 45% 2.3 mph NE3.7 kmh NE 2.7 mph4.3 kmh 29.71 in1006.1 mb 0.00 in0.0 mm 0.00 in0.0 mm 0.00 in0.0 mm
12:43 AM 58.3°F14.6°C 37.0°F2.8°C 45% 2.3 mph NE3.7 kmh NE 2.7 mph4.3 kmh 29.72 in1006.4 mb 0.00 in0.0 mm 0.00 in0.0 mm 0.00 in0.0 mm
12:42 AM 58.3°F14.6°C 36.5°F2.5°C 44% 2.7 mph NE4.3 kmh NE 3.6 mph5.8 kmh 29.71 in1006.1 mb 0.00 in0.0 mm 0.00 in0.0 mm 0.00 in0.0 mm
12:41 AM 58.3°F14.6°C 37.0°F2.8°C 45% 3.6 mph NW5.8 kmh NW 4.2 mph6.8 kmh 29.71 in1006.1 mb 0.00 in0.0 mm 0.00 in0.0 mm 0.00 in0.0 mm
12:40 AM 58.5°F14.7°C 36.6°F2.6°C 44% 1.3 mph W2.1 kmh W 1.9 mph3.1 kmh 29.71 in1006.1 mb 0.00 in0.0 mm 0.00 in0.0 mm 0.00 in0.0 mm
12:39 AM 58.5°F14.7°C 36.6°F2.6°C 44% 1.3 mph W2.1 kmh W 1.9 mph3.1 kmh 29.72 in1006.4 mb 0.00 in0.0 mm 0.00 in0.0 mm 0.00 in0.0 mm
12:38 AM 58.5°F14.7°C 36.6°F2.6°C 44% 2.3 mph W3.7 kmh W 2.7 mph4.3 kmh 29.71 in1006.1 mb 0.00 in0.0 mm 0.00 in0.0 mm 0.00 in0.0 mm
12:37 AM 58.5°F14.7°C 36.6°F2.6°C 44% 3.2 mph 5.1 kmh 3.6 mph5.8 kmh 29.71 in1006.1 mb 0.00 in0.0 mm 0.00 in0.0 mm 0.00 in0.0 mm
12:36 AM 58.3°F14.6°C 36.5°F2.5°C 44% 5.9 mph 9.5 kmh 8.7 mph14.0 kmh 29.71 in1006.1 mb 0.00 in0.0 mm 0.00 in0.0 mm 0.00 in0.0 mm
12:35 AM 58.3°F14.6°C 36.5°F2.5°C 44% 5.9 mph 9.5 kmh 8.7 mph14.0 kmh 29.71 in1006.1 mb 0.00 in0.0 mm 0.00 in0.0 mm 0.00 in0.0 mm
12:34 AM 58.3°F14.6°C 36.5°F2.5°C 44% 3.2 mph W5.1 kmh W 5.0 mph8.0 kmh 29.71 in1006.1 mb 0.00 in0.0 mm 0.00 in0.0 mm 0.00 in0.0 mm
12:33 AM 58.5°F14.7°C 36.6°F2.6°C 44% 4.2 mph SE6.8 kmh SE 5.0 mph8.0 kmh 29.71 in1006.1 mb 0.00 in0.0 mm 0.00 in0.0 mm 0.00 in0.0 mm
12:32 AM 58.6°F14.8°C 36.8°F2.7°C 44% 3.6 mph E5.8 kmh E 4.2 mph6.8 kmh 29.71 in1006.1 mb 0.00 in0.0 mm 0.00 in0.0 mm 0.00 in0.0 mm
12:31 AM 58.6°F14.8°C 36.8°F2.7°C 44% 3.6 mph E5.8 kmh E 4.2 mph6.8 kmh 29.71 in1006.1 mb 0.00 in0.0 mm 0.00 in0.0 mm 0.00 in0.0 mm
12:30 AM 58.8°F14.9°C 37.0°F2.8°C 44% 2.7 mph ENE4.3 kmh ENE 3.6 mph5.8 kmh 29.71 in1006.1 mb 0.00 in0.0 mm 0.00 in0.0 mm 0.00 in0.0 mm
12:29 AM 59.0°F15.0°C 37.1°F2.8°C 44% 1.9 mph SE3.1 kmh SE 2.3 mph3.7 kmh 29.71 in1006.1 mb 0.00 in0.0 mm 0.00 in0.0 mm 0.00 in0.0 mm
12:28 AM 59.0°F15.0°C 36.5°F2.5°C 43% 5.9 mph S9.5 kmh S 7.8 mph12.6 kmh 29.71 in1006.1 mb 0.00 in0.0 mm 0.00 in0.0 mm 0.00 in0.0 mm
12:27 AM 59.0°F15.0°C 36.5°F2.5°C 43% 5.9 mph S9.5 kmh S 7.8 mph12.6 kmh 29.72 in1006.4 mb 0.00 in0.0 mm 0.00 in0.0 mm 0.00 in0.0 mm
12:26 AM 59.0°F15.0°C 36.5°F2.5°C 43% 6.4 mph S10.3 kmh S 8.7 mph14.0 kmh 29.71 in1006.1 mb 0.00 in0.0 mm 0.00 in0.0 mm 0.00 in0.0 mm
12:25 AM 59.0°F15.0°C 36.5°F2.5°C 43% 5.9 mph S9.5 kmh S 7.3 mph11.7 kmh 29.71 in1006.1 mb 0.00 in0.0 mm 0.00 in0.0 mm 0.00 in0.0 mm
12:24 AM 59.0°F15.0°C 36.5°F2.5°C 43% 4.6 mph S7.4 kmh S 5.9 mph9.5 kmh 29.71 in1006.1 mb 0.00 in0.0 mm 0.00 in0.0 mm 0.00 in0.0 mm
12:23 AM 59.0°F15.0°C 36.5°F2.5°C 43% 4.6 mph S7.4 kmh S 5.9 mph9.5 kmh 29.71 in1006.1 mb 0.00 in0.0 mm 0.00 in0.0 mm 0.00 in0.0 mm
12:22 AM 58.8°F14.9°C 36.4°F2.4°C 43% 6.9 mph SW11.1 kmh SW 7.8 mph12.6 kmh 29.71 in1006.1 mb 0.00 in0.0 mm 0.00 in0.0 mm 0.00 in0.0 mm
12:21 AM 59.0°F15.0°C 37.1°F2.8°C 44% 1.9 mph SW3.1 kmh SW 2.3 mph3.7 kmh 29.71 in1006.1 mb 0.00 in0.0 mm 0.00 in0.0 mm 0.00 in0.0 mm
12:20 AM 59.0°F15.0°C 36.5°F2.5°C 43% 4.6 mph SW7.4 kmh SW 5.5 mph8.9 kmh 29.71 in1006.1 mb 0.00 in0.0 mm 0.00 in0.0 mm 0.00 in0.0 mm
12:19 AM 59.0°F15.0°C 36.5°F2.5°C 43% 4.6 mph SW7.4 kmh SW 5.5 mph8.9 kmh 29.71 in1006.1 mb 0.00 in0.0 mm 0.00 in0.0 mm 0.00 in0.0 mm
12:18 AM 59.2°F15.1°C 36.7°F2.6°C 43% 3.2 mph SW5.1 kmh SW 3.6 mph5.8 kmh 29.71 in1006.1 mb 0.00 in0.0 mm 0.00 in0.0 mm 0.00 in0.0 mm
12:17 AM 59.4°F15.2°C 36.9°F2.7°C 43% 2.7 mph SSW4.3 kmh SSW 4.2 mph6.8 kmh 29.71 in1006.1 mb 0.00 in0.0 mm 0.00 in0.0 mm 0.00 in0.0 mm
12:16 AM 59.4°F15.2°C 36.3°F2.4°C 42% 1.9 mph S3.1 kmh S 2.7 mph4.3 kmh 29.71 in1006.1 mb 0.00 in0.0 mm 0.00 in0.0 mm 0.00 in0.0 mm
12:15 AM 59.4°F15.2°C 36.3°F2.4°C 42% 1.9 mph S3.1 kmh S 2.7 mph4.3 kmh 29.71 in1006.1 mb 0.00 in0.0 mm 0.00 in0.0 mm 0.00 in0.0 mm
12:14 AM 59.4°F15.2°C 36.3°F2.4°C 42% 5.5 mph SW8.9 kmh SW 6.4 mph10.3 kmh 29.71 in1006.1 mb 0.00 in0.0 mm 0.00 in0.0 mm 0.00 in0.0 mm
12:13 AM 59.4°F15.2°C 36.3°F2.4°C 42% 10.1 mph SW16.3 kmh SW 11.4 mph18.3 kmh 29.71 in1006.1 mb 0.00 in0.0 mm 0.00 in0.0 mm 0.00 in0.0 mm
12:12 AM 59.5°F15.3°C 36.4°F2.4°C 42% 8.2 mph SSW13.2 kmh SSW 10.5 mph16.9 kmh 29.71 in1006.1 mb 0.00 in0.0 mm 0.00 in0.0 mm 0.00 in0.0 mm
12:11 AM 59.5°F15.3°C 36.4°F2.4°C 42% 8.2 mph SSW13.2 kmh SSW 10.5 mph16.9 kmh 29.71 in1006.1 mb 0.00 in0.0 mm 0.00 in0.0 mm 0.00 in0.0 mm
12:10 AM 59.5°F15.3°C 36.4°F2.4°C 42% 4.6 mph SSW7.4 kmh SSW 5.9 mph9.5 kmh 29.71 in1006.1 mb 0.00 in0.0 mm 0.00 in0.0 mm 0.00 in0.0 mm
12:09 AM 59.5°F15.3°C 36.4°F2.4°C 42% 6.9 mph SW11.1 kmh SW 8.7 mph14.0 kmh 29.71 in1006.1 mb 0.00 in0.0 mm 0.00 in0.0 mm 0.00 in0.0 mm
12:08 AM 59.5°F15.3°C 36.4°F2.4°C 42% 7.3 mph SW11.7 kmh SW 8.7 mph14.0 kmh 29.71 in1006.1 mb 0.00 in0.0 mm 0.00 in0.0 mm 0.00 in0.0 mm
12:07 AM 59.5°F15.3°C 36.4°F2.4°C 42% 7.3 mph SW11.7 kmh SW 8.7 mph14.0 kmh 29.70 in1005.8 mb 0.00 in0.0 mm 0.00 in0.0 mm 0.00 in0.0 mm
12:06 AM 59.5°F15.3°C 36.4°F2.4°C 42% 5.9 mph SW9.5 kmh SW 8.7 mph14.0 kmh 29.70 in1005.8 mb 0.00 in0.0 mm 0.00 in0.0 mm 0.00 in0.0 mm
12:05 AM 59.5°F15.3°C 36.4°F2.4°C 42% 8.2 mph SW13.2 kmh SW 9.5 mph15.3 kmh 29.71 in1006.1 mb 0.00 in0.0 mm 0.00 in0.0 mm 0.00 in0.0 mm
12:04 AM 59.5°F15.3°C 36.4°F2.4°C 42% 8.7 mph SW14.0 kmh SW 10.1 mph16.3 kmh 29.71 in1006.1 mb 0.00 in0.0 mm 0.00 in0.0 mm 0.00 in0.0 mm
12:03 AM 59.5°F15.3°C 36.4°F2.4°C 42% 8.7 mph SW14.0 kmh SW 10.1 mph16.3 kmh 29.71 in1006.1 mb 0.00 in0.0 mm 0.00 in0.0 mm 0.00 in0.0 mm
12:02 AM 59.5°F15.3°C 36.4°F2.4°C 42% 10.5 mph SSW16.9 kmh SSW 11.4 mph18.3 kmh 29.71 in1006.1 mb 0.00 in0.0 mm 0.00 in0.0 mm 0.00 in0.0 mm
12:01 AM 59.5°F15.3°C 36.4°F2.4°C 42% 9.5 mph SW15.3 kmh SW 11.4 mph18.3 kmh 29.71 in1006.1 mb 0.00 in0.0 mm 0.00 in0.0 mm 0.00 in0.0 mm
12:00 AM 59.5°F15.3°C 36.4°F2.4°C 42% 10.1 mph S16.3 kmh S 12.8 mph20.6 kmh 29.71 in1006.1 mb 0.00 in0.0 mm 0.00 in0.0 mm 0.00 in0.0 mm